sensor_id;sensor_type;location;lat;lon;timestamp;pressure;altitude;pressure_sealevel;temperature;humidity
17781;BME280;8498;52.516;13.790;2023-11-22T00:04:47;102022.22;;;1.97;98.04
17781;BME280;8498;52.516;13.790;2023-11-22T00:10:09;102044.81;;;2.06;98.29
17781;BME280;8498;52.516;13.790;2023-11-22T00:15:32;102041.13;;;2.20;96.85
17781;BME280;8498;52.516;13.790;2023-11-22T00:20:54;102033.97;;;2.35;94.90
17781;BME280;8498;52.516;13.790;2023-11-22T00:26:18;102056.53;;;2.48;94.80
17781;BME280;8498;52.516;13.790;2023-11-22T00:31:49;102066.94;;;2.54;94.01
17781;BME280;8498;52.516;13.790;2023-11-22T00:37:12;102075.59;;;2.61;94.37
17781;BME280;8498;52.516;13.790;2023-11-22T00:42:34;102086.00;;;2.68;94.49
17781;BME280;8498;52.516;13.790;2023-11-22T00:47:57;102096.53;;;2.65;94.82
17781;BME280;8498;52.516;13.790;2023-11-22T00:53:20;102095.53;;;2.74;93.97
17781;BME280;8498;52.516;13.790;2023-11-22T00:58:43;102096.41;;;2.74;93.18
17781;BME280;8498;52.516;13.790;2023-11-22T01:04:05;102098.28;;;2.66;92.82
17781;BME280;8498;52.516;13.790;2023-11-22T01:09:29;102103.59;;;2.60;92.25
17781;BME280;8498;52.516;13.790;2023-11-22T01:14:52;102104.59;;;2.50;91.25
17781;BME280;8498;52.516;13.790;2023-11-22T01:20:15;102108.13;;;2.47;90.00
17781;BME280;8498;52.516;13.790;2023-11-22T01:25:37;102116.13;;;2.37;88.12
17781;BME280;8498;52.516;13.790;2023-11-22T01:31:03;102126.66;;;2.32;88.13
17781;BME280;8498;52.516;13.790;2023-11-22T01:36:26;102132.88;;;2.24;86.90
17781;BME280;8498;52.516;13.790;2023-11-22T01:41:49;102112.84;;;2.18;86.38
17781;BME280;8498;52.516;13.790;2023-11-22T01:47:12;102129.59;;;2.03;86.54
17781;BME280;8498;52.516;13.790;2023-11-22T01:52:34;102134.00;;;1.98;86.50
17781;BME280;8498;52.516;13.790;2023-11-22T01:57:57;102130.59;;;1.87;85.68
17781;BME280;8498;52.516;13.790;2023-11-22T02:03:20;102141.16;;;1.78;85.36
17781;BME280;8498;52.516;13.790;2023-11-22T02:08:43;102134.25;;;1.71;84.52
17781;BME280;8498;52.516;13.790;2023-11-22T02:14:06;102132.59;;;1.61;83.07
17781;BME280;8498;52.516;13.790;2023-11-22T02:19:29;102129.09;;;1.59;82.61
17781;BME280;8498;52.516;13.790;2023-11-22T02:24:52;102142.28;;;1.51;82.11
17781;BME280;8498;52.516;13.790;2023-11-22T02:30:15;102146.69;;;1.44;80.33
17781;BME280;8498;52.516;13.790;2023-11-22T02:35:38;102151.97;;;1.35;79.56
17781;BME280;8498;52.516;13.790;2023-11-22T02:41:01;102150.28;;;1.30;78.97
17781;BME280;8498;52.516;13.790;2023-11-22T02:46:24;102176.44;;;1.34;79.52
17781;BME280;8498;52.516;13.790;2023-11-22T02:51:48;102165.97;;;1.31;78.63
17781;BME280;8498;52.516;13.790;2023-11-22T02:57:11;102178.19;;;1.29;78.61
17781;BME280;8498;52.516;13.790;2023-11-22T03:02:35;102184.31;;;1.25;78.47
17781;BME280;8498;52.516;13.790;2023-11-22T03:07:57;102185.25;;;1.21;79.20
17781;BME280;8498;52.516;13.790;2023-11-22T03:13:20;102217.53;;;1.20;79.05
17781;BME280;8498;52.516;13.790;2023-11-22T03:18:43;102225.44;;;1.06;80.44
17781;BME280;8498;52.516;13.790;2023-11-22T03:24:06;102234.19;;;0.95;81.68
17781;BME280;8498;52.516;13.790;2023-11-22T03:29:29;102251.66;;;0.87;82.74
17781;BME280;8498;52.516;13.790;2023-11-22T03:34:52;102257.81;;;0.75;84.38
17781;BME280;8498;52.516;13.790;2023-11-22T03:40:14;102253.41;;;0.85;83.70
17781;BME280;8498;52.516;13.790;2023-11-22T03:45:37;102277.84;;;0.74;84.76
17781;BME280;8498;52.516;13.790;2023-11-22T03:50:59;102279.63;;;0.69;85.15
17781;BME280;8498;52.516;13.790;2023-11-22T03:56:22;102278.78;;;0.61;85.66
17781;BME280;8498;52.516;13.790;2023-11-22T04:01:45;102272.69;;;0.59;86.04
17781;BME280;8498;52.516;13.790;2023-11-22T04:07:08;102263.97;;;0.57;86.18
17781;BME280;8498;52.516;13.790;2023-11-22T04:12:30;102273.53;;;0.64;86.20
17781;BME280;8498;52.516;13.790;2023-11-22T04:17:55;102262.19;;;0.67;85.25
17781;BME280;8498;52.516;13.790;2023-11-22T04:23:18;102268.28;;;0.66;84.19
17781;BME280;8498;52.516;13.790;2023-11-22T04:28:41;102292.72;;;0.62;84.53
17781;BME280;8498;52.516;13.790;2023-11-22T04:34:04;102295.31;;;0.54;83.86
17781;BME280;8498;52.516;13.790;2023-11-22T04:39:26;102315.38;;;0.52;84.57
17781;BME280;8498;52.516;13.790;2023-11-22T04:44:49;102325.00;;;0.50;84.01
17781;BME280;8498;52.516;13.790;2023-11-22T04:50:12;102311.88;;;0.53;83.92
17781;BME280;8498;52.516;13.790;2023-11-22T04:55:35;102318.88;;;0.54;82.00
17781;BME280;8498;52.516;13.790;2023-11-22T05:00:57;102321.50;;;0.51;81.77
17781;BME280;8498;52.516;13.790;2023-11-22T05:06:21;102321.50;;;0.45;82.56
17781;BME280;8498;52.516;13.790;2023-11-22T05:11:44;102345.03;;;0.39;82.63
17781;BME280;8498;52.516;13.790;2023-11-22T05:17:09;102361.56;;;0.26;82.92
17781;BME280;8498;52.516;13.790;2023-11-22T05:22:32;102389.44;;;0.19;83.39
17781;BME280;8498;52.516;13.790;2023-11-22T05:27:54;102390.28;;;0.00;85.32
17781;BME280;8498;52.516;13.790;2023-11-22T05:33:17;102389.44;;;0.09;84.93
17781;BME280;8498;52.516;13.790;2023-11-22T05:38:40;102378.97;;;-0.01;84.64
17781;BME280;8498;52.516;13.790;2023-11-22T05:44:02;102384.13;;;-0.10;85.31
17781;BME280;8498;52.516;13.790;2023-11-22T05:49:26;102389.31;;;-0.19;86.03
17781;BME280;8498;52.516;13.790;2023-11-22T05:54:48;102384.97;;;-0.23;86.90
17781;BME280;8498;52.516;13.790;2023-11-22T06:00:11;102391.91;;;-0.29;87.36
17781;BME280;8498;52.516;13.790;2023-11-22T06:05:36;102411.94;;;-0.33;87.82
17781;BME280;8498;52.516;13.790;2023-11-22T06:10:59;102418.81;;;-0.41;87.76
17781;BME280;8498;52.516;13.790;2023-11-22T06:16:22;102431.91;;;-0.37;87.62
17781;BME280;8498;52.516;13.790;2023-11-22T06:21:44;102416.19;;;-0.47;87.63
17781;BME280;8498;52.516;13.790;2023-11-22T06:27:08;102412.69;;;-0.51;87.48
17781;BME280;8498;52.516;13.790;2023-11-22T06:32:30;102405.72;;;-0.50;87.26
17781;BME280;8498;52.516;13.790;2023-11-22T06:37:53;102410.06;;;-0.55;88.01
17781;BME280;8498;52.516;13.790;2023-11-22T06:43:15;102425.69;;;-0.61;88.47
17781;BME280;8498;52.516;13.790;2023-11-22T06:48:38;102440.47;;;-0.60;88.29
17781;BME280;8498;52.516;13.790;2023-11-22T06:54:01;102460.50;;;-0.62;88.48
17781;BME280;8498;52.516;13.790;2023-11-22T06:59:25;102473.50;;;-0.68;89.06
17781;BME280;8498;52.516;13.790;2023-11-22T07:04:48;102485.72;;;-0.61;89.26
17781;BME280;8498;52.516;13.790;2023-11-22T07:10:11;102500.50;;;-0.60;88.47
17781;BME280;8498;52.516;13.790;2023-11-22T07:15:35;102504.06;;;-0.55;88.39
17781;BME280;8498;52.516;13.790;2023-11-22T07:20:58;102518.84;;;-0.54;88.53
17781;BME280;8498;52.516;13.790;2023-11-22T07:26:22;102518.88;;;-0.53;88.33
17781;BME280;8498;52.516;13.790;2023-11-22T07:31:45;102524.16;;;-0.39;87.14
17781;BME280;8498;52.516;13.790;2023-11-22T07:37:07;102532.88;;;-0.37;88.11
17781;BME280;8498;52.516;13.790;2023-11-22T07:42:30;102532.06;;;-0.27;87.19
17781;BME280;8498;52.516;13.790;2023-11-22T07:47:53;102539.03;;;-0.29;88.14
17781;BME280;8498;52.516;13.790;2023-11-22T07:53:16;102539.06;;;-0.20;88.09
17781;BME280;8498;52.516;13.790;2023-11-22T07:58:40;102532.19;;;-0.06;87.10
17781;BME280;8498;52.516;13.790;2023-11-22T08:04:03;102510.47;;;-0.02;87.20
17781;BME280;8498;52.516;13.790;2023-11-22T08:09:27;102497.44;;;0.09;87.85
17781;BME280;8498;52.516;13.790;2023-11-22T08:14:54;102490.47;;;0.13;87.61
17781;BME280;8498;52.516;13.790;2023-11-22T08:20:19;102485.25;;;0.22;87.13
17781;BME280;8498;52.516;13.790;2023-11-22T08:25:42;102502.72;;;0.26;87.61
17781;BME280;8498;52.516;13.790;2023-11-22T08:31:07;102512.38;;;0.41;87.23
17781;BME280;8498;52.516;13.790;2023-11-22T08:36:32;102508.00;;;0.47;87.05
17781;BME280;8498;52.516;13.790;2023-11-22T08:41:56;102510.66;;;0.59;86.80
17781;BME280;8498;52.516;13.790;2023-11-22T08:47:18;102529.84;;;0.66;85.96
17781;BME280;8498;52.516;13.790;2023-11-22T08:52:41;102534.25;;;0.81;84.76
17781;BME280;8498;52.516;13.790;2023-11-22T08:58:08;102541.22;;;0.95;83.90
17781;BME280;8498;52.516;13.790;2023-11-22T09:03:30;102535.13;;;1.05;84.56
17781;BME280;8498;52.516;13.790;2023-11-22T09:08:53;102534.28;;;1.14;82.06
17781;BME280;8498;52.516;13.790;2023-11-22T09:14:16;102526.41;;;1.17;80.63
17781;BME280;8498;52.516;13.790;2023-11-22T09:19:38;102539.50;;;1.32;80.83
17781;BME280;8498;52.516;13.790;2023-11-22T09:25:01;102538.63;;;1.44;80.14
17781;BME280;8498;52.516;13.790;2023-11-22T09:30:26;102531.63;;;1.58;79.92
17781;BME280;8498;52.516;13.790;2023-11-22T09:35:57;102533.34;;;1.70;79.44
17781;BME280;8498;52.516;13.790;2023-11-22T09:41:20;102504.53;;;1.74;78.68
17781;BME280;8498;52.516;13.790;2023-11-22T09:46:43;102493.13;;;1.88;77.53
17781;BME280;8498;52.516;13.790;2023-11-22T09:52:08;102477.34;;;1.98;77.00
17781;BME280;8498;52.516;13.790;2023-11-22T09:57:38;102465.97;;;2.05;75.98
17781;BME280;8498;52.516;13.790;2023-11-22T10:03:01;102464.19;;;2.13;75.29
17781;BME280;8498;52.516;13.790;2023-11-22T10:08:25;102487.75;;;2.22;75.68
17781;BME280;8498;52.516;13.790;2023-11-22T10:13:49;102507.78;;;2.33;74.92
17781;BME280;8498;52.516;13.790;2023-11-22T10:19:13;102518.19;;;2.51;74.11
17781;BME280;8498;52.516;13.790;2023-11-22T10:24:36;102518.09;;;2.66;71.44
17781;BME280;8498;52.516;13.790;2023-11-22T10:29:58;102537.22;;;2.88;69.54
17781;BME280;8498;52.516;13.790;2023-11-22T10:35:21;102549.16;;;3.27;67.14
17781;BME280;8498;52.516;13.790;2023-11-22T10:40:47;102531.38;;;3.58;65.43
17781;BME280;8498;52.516;13.790;2023-11-22T10:46:12;102526.41;;;4.12;64.68
17781;BME280;8498;52.516;13.790;2023-11-22T10:51:39;102524.53;;;4.87;63.20
17781;BME280;8498;52.516;13.790;2023-11-22T10:57:02;102523.22;;;5.14;60.30
17781;BME280;8498;52.516;13.790;2023-11-22T11:02:26;102514.59;;;5.04;60.63
17781;BME280;8498;52.516;13.790;2023-11-22T11:08:01;102522.63;;;4.97;59.74
17781;BME280;8498;52.516;13.790;2023-11-22T11:13:25;102509.81;;;5.28;58.88
17781;BME280;8498;52.516;13.790;2023-11-22T11:18:50;102520.91;;;5.46;59.62
17781;BME280;8498;52.516;13.790;2023-11-22T11:24:13;102504.72;;;5.66;58.00
17781;BME280;8498;52.516;13.790;2023-11-22T11:29:36;102494.72;;;5.82;57.28
17781;BME280;8498;52.516;13.790;2023-11-22T11:35:06;102485.59;;;5.53;55.85
17781;BME280;8498;52.516;13.790;2023-11-22T11:40:32;102472.00;;;5.76;56.78
17781;BME280;8498;52.516;13.790;2023-11-22T11:46:00;102467.56;;;5.31;56.75
17781;BME280;8498;52.516;13.790;2023-11-22T11:51:28;102474.88;;;5.16;57.59
17781;BME280;8498;52.516;13.790;2023-11-22T11:56:50;102440.78;;;5.53;57.33
17781;BME280;8498;52.516;13.790;2023-11-22T12:02:17;102429.34;;;6.01;55.87
17781;BME280;8498;52.516;13.790;2023-11-22T12:07:41;102421.00;;;6.19;55.64
17781;BME280;8498;52.516;13.790;2023-11-22T12:13:04;102406.69;;;5.91;55.55
17781;BME280;8498;52.516;13.790;2023-11-22T12:18:28;102396.47;;;5.72;55.79
17781;BME280;8498;52.516;13.790;2023-11-22T12:23:51;102378.00;;;5.72;55.39
17781;BME280;8498;52.516;13.790;2023-11-22T12:29:14;102359.28;;;5.84;55.92
17781;BME280;8498;52.516;13.790;2023-11-22T12:34:36;102348.34;;;6.03;54.84
17781;BME280;8498;52.516;13.790;2023-11-22T12:40:07;102339.38;;;6.11;55.80
17781;BME280;8498;52.516;13.790;2023-11-22T12:45:33;102342.53;;;5.87;54.69
17781;BME280;8498;52.516;13.790;2023-11-22T12:51:01;102355.66;;;5.50;57.45
17781;BME280;8498;52.516;13.790;2023-11-22T12:56:24;102376.91;;;5.41;57.13
17781;BME280;8498;52.516;13.790;2023-11-22T13:01:50;102401.09;;;5.16;58.89
17781;BME280;8498;52.516;13.790;2023-11-22T13:07:15;102416.31;;;4.99;58.95
17781;BME280;8498;52.516;13.790;2023-11-22T13:12:37;102431.38;;;4.91;56.33
17781;BME280;8498;52.516;13.790;2023-11-22T13:18:00;102435.19;;;4.75;57.75
17781;BME280;8498;52.516;13.790;2023-11-22T13:23:23;102405.47;;;4.67;60.21
17781;BME280;8498;52.516;13.790;2023-11-22T13:28:45;102398.53;;;4.60;63.94
17781;BME280;8498;52.516;13.790;2023-11-22T13:34:08;102382.88;;;4.54;63.97
17781;BME280;8498;52.516;13.790;2023-11-22T13:39:30;102374.31;;;4.39;65.58
17781;BME280;8498;52.516;13.790;2023-11-22T13:44:55;102369.03;;;4.39;67.81
17781;BME280;8498;52.516;13.790;2023-11-22T13:50:18;102359.50;;;4.34;66.51
17781;BME280;8498;52.516;13.790;2023-11-22T13:55:44;102340.41;;;4.20;70.81
17781;BME280;8498;52.516;13.790;2023-11-22T14:01:06;102325.88;;;3.96;71.42
17781;BME280;8498;52.516;13.790;2023-11-22T14:06:34;102326.09;;;3.81;73.59
17781;BME280;8498;52.516;13.790;2023-11-22T14:11:56;102322.66;;;3.76;74.51
17781;BME280;8498;52.516;13.790;2023-11-22T14:17:19;102301.56;;;3.82;74.21
17781;BME280;8498;52.516;13.790;2023-11-22T14:22:43;102312.97;;;3.79;72.23
17781;BME280;8498;52.516;13.790;2023-11-22T14:28:06;102330.44;;;3.83;68.99
17781;BME280;8498;52.516;13.790;2023-11-22T14:33:28;102351.53;;;3.77;70.00
17781;BME280;8498;52.516;13.790;2023-11-22T14:38:54;102339.56;;;3.55;75.50
17781;BME280;8498;52.516;13.790;2023-11-22T14:44:18;102366.91;;;3.40;75.99
17781;BME280;8498;52.516;13.790;2023-11-22T14:49:41;102373.31;;;3.15;77.19
17781;BME280;8498;52.516;13.790;2023-11-22T14:55:09;102374.38;;;2.99;79.49
17781;BME280;8498;52.516;13.790;2023-11-22T15:00:33;102368.31;;;2.90;81.70
17781;BME280;8498;52.516;13.790;2023-11-22T15:05:55;102368.44;;;2.78;82.29
17781;BME280;8498;52.516;13.790;2023-11-22T15:11:20;102358.03;;;2.68;83.68
17781;BME280;8498;52.516;13.790;2023-11-22T15:16:42;102352.00;;;2.55;84.93
17781;BME280;8498;52.516;13.790;2023-11-22T15:22:05;102342.41;;;2.51;85.09
17781;BME280;8498;52.516;13.790;2023-11-22T15:27:28;102334.63;;;2.42;85.84
17781;BME280;8498;52.516;13.790;2023-11-22T15:32:51;102317.13;;;2.44;86.22
17781;BME280;8498;52.516;13.790;2023-11-22T15:38:15;102319.75;;;2.41;86.92
17781;BME280;8498;52.516;13.790;2023-11-22T15:43:37;102320.63;;;2.43;87.06
17781;BME280;8498;52.516;13.790;2023-11-22T15:49:00;102338.97;;;2.46;86.09
17781;BME280;8498;52.516;13.790;2023-11-22T15:54:22;102328.50;;;2.44;84.87
17781;BME280;8498;52.516;13.790;2023-11-22T15:59:45;102329.28;;;2.51;87.36
17781;BME280;8498;52.516;13.790;2023-11-22T16:05:08;102317.06;;;2.50;88.60
17781;BME280;8498;52.516;13.790;2023-11-22T16:10:35;102324.13;;;2.45;88.79
17781;BME280;8498;52.516;13.790;2023-11-22T16:15:58;102316.06;;;2.63;87.37
17781;BME280;8498;52.516;13.790;2023-11-22T16:21:22;102310.75;;;2.72;85.08
17781;BME280;8498;52.516;13.790;2023-11-22T16:26:46;102315.00;;;2.84;83.34
17781;BME280;8498;52.516;13.790;2023-11-22T16:32:08;102305.38;;;2.84;81.20
17781;BME280;8498;52.516;13.790;2023-11-22T16:37:31;102298.28;;;2.91;80.77
17781;BME280;8498;52.516;13.790;2023-11-22T16:42:55;102300.97;;;2.88;81.63
17781;BME280;8498;52.516;13.790;2023-11-22T16:48:17;102285.22;;;2.86;81.14
17781;BME280;8498;52.516;13.790;2023-11-22T16:53:40;102273.81;;;2.90;81.84
17781;BME280;8498;52.516;13.790;2023-11-22T16:59:02;102269.28;;;3.02;81.73
17781;BME280;8498;52.516;13.790;2023-11-22T17:04:25;102266.84;;;2.89;78.14
17781;BME280;8498;52.516;13.790;2023-11-22T17:09:47;102255.44;;;2.90;80.95
17781;BME280;8498;52.516;13.790;2023-11-22T17:15:10;102257.16;;;2.91;80.10
17781;BME280;8498;52.516;13.790;2023-11-22T17:20:35;102259.84;;;2.88;78.29
17781;BME280;8498;52.516;13.790;2023-11-22T17:25:58;102230.91;;;2.91;78.27
17781;BME280;8498;52.516;13.790;2023-11-22T17:31:20;102222.28;;;2.80;77.45
17781;BME280;8498;52.516;13.790;2023-11-22T17:36:42;102207.41;;;2.82;78.23
17781;BME280;8498;52.516;13.790;2023-11-22T17:42:05;102200.56;;;2.69;78.47
17781;BME280;8498;52.516;13.790;2023-11-22T17:47:28;102194.34;;;2.79;79.31
17781;BME280;8498;52.516;13.790;2023-11-22T17:52:54;102182.09;;;2.78;79.62
17781;BME280;8498;52.516;13.790;2023-11-22T17:58:17;102194.59;;;2.58;78.24
17781;BME280;8498;52.516;13.790;2023-11-22T18:03:39;102201.50;;;2.62;79.20
17781;BME280;8498;52.516;13.790;2023-11-22T18:09:02;102173.63;;;2.52;79.22
17781;BME280;8498;52.516;13.790;2023-11-22T18:14:25;102157.03;;;2.50;79.54
17781;BME280;8498;52.516;13.790;2023-11-22T18:19:48;102144.81;;;2.50;78.59
17781;BME280;8498;52.516;13.790;2023-11-22T18:25:10;102152.75;;;2.46;78.93
17781;BME280;8498;52.516;13.790;2023-11-22T18:30:36;102141.41;;;2.42;79.10
17781;BME280;8498;52.516;13.790;2023-11-22T18:36:00;102135.41;;;2.33;79.97
17781;BME280;8498;52.516;13.790;2023-11-22T18:41:23;102133.66;;;2.32;79.58
17781;BME280;8498;52.516;13.790;2023-11-22T18:46:45;102134.50;;;2.35;82.61
17781;BME280;8498;52.516;13.790;2023-11-22T18:52:08;102107.78;;;2.75;80.17
17781;BME280;8498;52.516;13.790;2023-11-22T18:57:30;102088.16;;;2.36;79.41
17781;BME280;8498;52.516;13.790;2023-11-22T19:02:53;102084.84;;;2.18;80.12
17781;BME280;8498;52.516;13.790;2023-11-22T19:08:15;102091.13;;;2.07;80.68
17781;BME280;8498;52.516;13.790;2023-11-22T19:13:38;102076.31;;;1.98;82.02
17781;BME280;8498;52.516;13.790;2023-11-22T19:19:01;102080.00;;;1.80;82.74
17781;BME280;8498;52.516;13.790;2023-11-22T19:24:25;102057.28;;;1.82;84.17
17781;BME280;8498;52.516;13.790;2023-11-22T19:29:49;102028.50;;;1.79;84.67
17781;BME280;8498;52.516;13.790;2023-11-22T19:35:11;102013.75;;;1.68;85.35
17781;BME280;8498;52.516;13.790;2023-11-22T19:40:34;101992.81;;;1.68;85.73
17781;BME280;8498;52.516;13.790;2023-11-22T19:45:57;101972.56;;;1.82;85.63
17781;BME280;8498;52.516;13.790;2023-11-22T19:51:20;101989.38;;;1.66;86.37
17781;BME280;8498;52.516;13.790;2023-11-22T19:56:44;101988.50;;;1.65;86.79
17781;BME280;8498;52.516;13.790;2023-11-22T20:02:07;101984.13;;;1.66;87.16
17781;BME280;8498;52.516;13.790;2023-11-22T20:07:30;101973.69;;;1.60;87.75
17781;BME280;8498;52.516;13.790;2023-11-22T20:12:53;101961.69;;;1.37;88.65
17781;BME280;8498;52.516;13.790;2023-11-22T20:18:16;101958.16;;;1.44;88.54
17781;BME280;8498;52.516;13.790;2023-11-22T20:23:39;101963.44;;;1.38;88.85
17781;BME280;8498;52.516;13.790;2023-11-22T20:29:03;101960.78;;;1.41;89.38
17781;BME280;8498;52.516;13.790;2023-11-22T20:34:26;101955.56;;;1.43;89.13
17781;BME280;8498;52.516;13.790;2023-11-22T20:39:49;101939.88;;;1.37;89.50
17781;BME280;8498;52.516;13.790;2023-11-22T20:45:11;101925.88;;;1.42;89.40
17781;BME280;8498;52.516;13.790;2023-11-22T20:50:35;101919.66;;;1.51;89.68
17781;BME280;8498;52.516;13.790;2023-11-22T20:55:57;101912.78;;;1.44;90.33
17781;BME280;8498;52.516;13.790;2023-11-22T21:01:21;101874.25;;;1.54;90.17
17781;BME280;8498;52.516;13.790;2023-11-22T21:06:44;101879.50;;;1.54;90.35
17781;BME280;8498;52.516;13.790;2023-11-22T21:12:07;101854.22;;;1.50;90.43
17781;BME280;8498;52.516;13.790;2023-11-22T21:17:30;101844.56;;;1.55;90.53
17781;BME280;8498;52.516;13.790;2023-11-22T21:23:03;101830.41;;;1.68;90.33
17781;BME280;8498;52.516;13.790;2023-11-22T21:28:26;101813.94;;;1.60;90.53
17781;BME280;8498;52.516;13.790;2023-11-22T21:33:49;101787.78;;;1.57;90.32
17781;BME280;8498;52.516;13.790;2023-11-22T21:39:11;101791.34;;;1.53;90.95
17781;BME280;8498;52.516;13.790;2023-11-22T21:44:35;101795.47;;;1.69;90.69
17781;BME280;8498;52.516;13.790;2023-11-22T21:49:57;101785.09;;;1.63;90.80
17781;BME280;8498;52.516;13.790;2023-11-22T21:55:20;101776.38;;;1.61;91.23
17781;BME280;8498;52.516;13.790;2023-11-22T22:00:42;101786.09;;;1.53;91.28
17781;BME280;8498;52.516;13.790;2023-11-22T22:06:05;101765.03;;;1.60;90.76
17781;BME280;8498;52.516;13.790;2023-11-22T22:11:28;101750.06;;;1.70;90.19
17781;BME280;8498;52.516;13.790;2023-11-22T22:16:50;101725.53;;;1.75;90.03
17781;BME280;8498;52.516;13.790;2023-11-22T22:22:13;101725.53;;;1.75;89.06
17781;BME280;8498;52.516;13.790;2023-11-22T22:27:35;101709.69;;;1.83;88.89
17781;BME280;8498;52.516;13.790;2023-11-22T22:32:57;101703.44;;;1.90;88.94
17781;BME280;8498;52.516;13.790;2023-11-22T22:38:20;101697.28;;;1.94;88.84
17781;BME280;8498;52.516;13.790;2023-11-22T22:43:43;101675.47;;;1.94;88.80
17781;BME280;8498;52.516;13.790;2023-11-22T22:49:05;101674.56;;;1.96;88.56
17781;BME280;8498;52.516;13.790;2023-11-22T22:54:28;101649.03;;;2.07;88.38
17781;BME280;8498;52.516;13.790;2023-11-22T22:59:51;101612.34;;;2.06;87.30
17781;BME280;8498;52.516;13.790;2023-11-22T23:05:13;101612.59;;;1.91;87.74
17781;BME280;8498;52.516;13.790;2023-11-22T23:10:47;101596.03;;;1.89;87.56
17781;BME280;8498;52.516;13.790;2023-11-22T23:16:09;101589.63;;;2.06;87.33
17781;BME280;8498;52.516;13.790;2023-11-22T23:21:32;101570.44;;;2.04;86.97
17781;BME280;8498;52.516;13.790;2023-11-22T23:26:54;101549.38;;;2.09;87.04
17781;BME280;8498;52.516;13.790;2023-11-22T23:32:17;101543.44;;;1.99;87.64
17781;BME280;8498;52.516;13.790;2023-11-22T23:37:40;101540.03;;;1.97;87.98
17781;BME280;8498;52.516;13.790;2023-11-22T23:43:04;101534.50;;;2.09;87.81
17781;BME280;8498;52.516;13.790;2023-11-22T23:48:26;101520.28;;;2.22;86.91
17781;BME280;8498;52.516;13.790;2023-11-22T23:53:50;101506.41;;;2.17;86.70
17781;BME280;8498;52.516;13.790;2023-11-22T23:59:13;101501.94;;;2.21;85.95
